sensor_id;sensor_type;location;lat;lon;timestamp;pressure;altitude;pressure_sealevel;temperature;humidity
62025;BME280;47978;49.118;12.146;2022-12-07T00:01:33;97403.72;;;3.26;88.87
62025;BME280;47978;49.118;12.146;2022-12-07T00:05:35;97403.50;;;3.33;88.79
62025;BME280;47978;49.118;12.146;2022-12-07T00:09:36;97399.75;;;3.39;87.99
62025;BME280;47978;49.118;12.146;2022-12-07T00:13:38;97392.31;;;3.34;87.66
62025;BME280;47978;49.118;12.146;2022-12-07T00:17:41;97391.31;;;3.46;88.30
62025;BME280;47978;49.118;12.146;2022-12-07T00:21:42;97389.06;;;3.37;88.60
62025;BME280;47978;49.118;12.146;2022-12-07T00:25:44;97382.47;;;3.33;88.27
62025;BME280;47978;49.118;12.146;2022-12-07T00:29:45;97376.41;;;3.26;88.42
62025;BME280;47978;49.118;12.146;2022-12-07T00:33:48;97379.22;;;3.36;87.94
62025;BME280;47978;49.118;12.146;2022-12-07T00:37:49;97379.22;;;3.36;87.71
62025;BME280;47978;49.118;12.146;2022-12-07T00:41:51;97374.25;;;3.28;87.51
62025;BME280;47978;49.118;12.146;2022-12-07T00:45:52;97381.34;;;3.29;88.02
62025;BME280;47978;49.118;12.146;2022-12-07T00:49:56;97378.84;;;3.23;88.15
62025;BME280;47978;49.118;12.146;2022-12-07T00:53:57;97378.78;;;3.18;88.18
62025;BME280;47978;49.118;12.146;2022-12-07T00:57:58;97368.16;;;3.16;88.27
62025;BME280;47978;49.118;12.146;2022-12-07T01:02:00;97386.19;;;3.17;87.89
62025;BME280;47978;49.118;12.146;2022-12-07T01:06:03;97387.41;;;3.04;87.41
62025;BME280;47978;49.118;12.146;2022-12-07T01:10:05;97393.09;;;2.98;87.99
62025;BME280;47978;49.118;12.146;2022-12-07T01:14:07;97384.09;;;2.97;88.04
62025;BME280;47978;49.118;12.146;2022-12-07T01:18:09;97388.78;;;3.02;88.28
62025;BME280;47978;49.118;12.146;2022-12-07T01:22:13;97381.59;;;2.90;88.31
62025;BME280;47978;49.118;12.146;2022-12-07T01:26:15;97392.19;;;2.87;88.58
62025;BME280;47978;49.118;12.146;2022-12-07T01:30:17;97396.94;;;2.97;87.98
62025;BME280;47978;49.118;12.146;2022-12-07T01:34:18;97392.34;;;3.02;87.29
62025;BME280;47978;49.118;12.146;2022-12-07T01:38:21;97390.47;;;3.08;87.21
62025;BME280;47978;49.118;12.146;2022-12-07T01:42:22;97386.31;;;3.00;87.57
62025;BME280;47978;49.118;12.146;2022-12-07T01:46:24;97391.81;;;3.05;87.09
62025;BME280;47978;49.118;12.146;2022-12-07T01:50:25;97383.09;;;3.08;86.73
62025;BME280;47978;49.118;12.146;2022-12-07T01:54:29;97382.06;;;3.14;86.04
62025;BME280;47978;49.118;12.146;2022-12-07T01:58:31;97381.09;;;2.99;87.44
62025;BME280;47978;49.118;12.146;2022-12-07T03:08:53;97354.66;;;2.72;87.24
62025;BME280;47978;49.118;12.146;2022-12-07T03:13:01;97353.09;;;2.81;86.94
62025;BME280;47978;49.118;12.146;2022-12-07T03:17:05;97360.75;;;2.84;87.04
62025;BME280;47978;49.118;12.146;2022-12-07T03:21:08;97364.69;;;2.93;86.85
62025;BME280;47978;49.118;12.146;2022-12-07T03:25:13;97357.59;;;2.98;86.83
62025;BME280;47978;49.118;12.146;2022-12-07T03:29:17;97366.97;;;2.75;87.22
62025;BME280;47978;49.118;12.146;2022-12-07T03:33:21;97356.09;;;2.80;86.98
62025;BME280;47978;49.118;12.146;2022-12-07T03:37:26;97354.47;;;2.84;87.05
62025;BME280;47978;49.118;12.146;2022-12-07T03:41:32;97353.72;;;2.88;87.10
62025;BME280;47978;49.118;12.146;2022-12-07T03:45:37;97361.09;;;2.93;86.83
62025;BME280;47978;49.118;12.146;2022-12-07T03:49:40;97361.56;;;2.80;87.12
62025;BME280;47978;49.118;12.146;2022-12-07T03:53:44;97356.41;;;2.83;87.00
62025;BME280;47978;49.118;12.146;2022-12-07T03:57:49;97357.00;;;2.90;86.60
62025;BME280;47978;49.118;12.146;2022-12-07T04:01:53;97349.31;;;2.87;86.69
62025;BME280;47978;49.118;12.146;2022-12-07T04:05:55;97350.06;;;2.78;86.94
62025;BME280;47978;49.118;12.146;2022-12-07T04:09:56;97350.97;;;2.88;86.41
62025;BME280;47978;49.118;12.146;2022-12-07T04:13:59;97352.50;;;2.74;86.89
62025;BME280;47978;49.118;12.146;2022-12-07T04:18:01;97347.69;;;2.86;86.35
62025;BME280;47978;49.118;12.146;2022-12-07T04:22:03;97350.34;;;2.76;87.06
62025;BME280;47978;49.118;12.146;2022-12-07T04:26:04;97344.56;;;2.73;87.15
62025;BME280;47978;49.118;12.146;2022-12-07T04:30:08;97346.56;;;2.55;87.78
62025;BME280;47978;49.118;12.146;2022-12-07T04:34:10;97346.50;;;2.77;86.57
62025;BME280;47978;49.118;12.146;2022-12-07T04:38:11;97344.94;;;2.86;86.07
62025;BME280;47978;49.118;12.146;2022-12-07T04:42:13;97345.56;;;2.93;85.58
62025;BME280;47978;49.118;12.146;2022-12-07T04:46:16;97333.69;;;2.78;85.64
62025;BME280;47978;49.118;12.146;2022-12-07T04:50:17;97332.56;;;2.74;86.03
62025;BME280;47978;49.118;12.146;2022-12-07T04:54:19;97326.63;;;2.82;85.47
62025;BME280;47978;49.118;12.146;2022-12-07T04:58:20;97326.25;;;2.73;85.96
62025;BME280;47978;49.118;12.146;2022-12-07T05:02:23;97329.38;;;2.82;85.54
62025;BME280;47978;49.118;12.146;2022-12-07T05:06:24;97325.50;;;2.78;85.24
62025;BME280;47978;49.118;12.146;2022-12-07T05:10:26;97330.09;;;2.72;84.37
62025;BME280;47978;49.118;12.146;2022-12-07T05:14:27;97320.91;;;2.51;85.66
62025;BME280;47978;49.118;12.146;2022-12-07T05:18:30;97318.22;;;2.29;86.69
62025;BME280;47978;49.118;12.146;2022-12-07T05:22:31;97307.09;;;2.09;87.45
62025;BME280;47978;49.118;12.146;2022-12-07T05:26:33;97303.69;;;1.96;87.86
62025;BME280;47978;49.118;12.146;2022-12-07T05:30:34;97302.88;;;1.74;89.21
62025;BME280;47978;49.118;12.146;2022-12-07T05:34:37;97300.34;;;1.67;88.71
62025;BME280;47978;49.118;12.146;2022-12-07T05:38:39;97312.44;;;1.54;89.13
62025;BME280;47978;49.118;12.146;2022-12-07T05:42:40;97313.50;;;1.53;88.67
62025;BME280;47978;49.118;12.146;2022-12-07T05:46:42;97316.22;;;1.31;88.76
62025;BME280;47978;49.118;12.146;2022-12-07T05:50:44;97332.22;;;1.28;88.63
62025;BME280;47978;49.118;12.146;2022-12-07T05:54:48;97327.72;;;1.17;88.73
62025;BME280;47978;49.118;12.146;2022-12-07T05:58:49;97335.97;;;1.05;88.65
62025;BME280;47978;49.118;12.146;2022-12-07T06:02:51;97341.00;;;0.96;88.73
62025;BME280;47978;49.118;12.146;2022-12-07T06:06:54;97342.69;;;0.80;89.05
62025;BME280;47978;49.118;12.146;2022-12-07T06:10:55;97339.59;;;0.77;89.11
62025;BME280;47978;49.118;12.146;2022-12-07T06:14:57;97349.25;;;0.67;89.19
62025;BME280;47978;49.118;12.146;2022-12-07T06:18:58;97359.41;;;0.55;89.26
62025;BME280;47978;49.118;12.146;2022-12-07T06:23:01;97357.16;;;0.52;89.85
62025;BME280;47978;49.118;12.146;2022-12-07T06:27:02;97350.66;;;0.53;89.30
62025;BME280;47978;49.118;12.146;2022-12-07T06:31:04;97352.44;;;0.48;89.56
62025;BME280;47978;49.118;12.146;2022-12-07T06:35:12;97350.81;;;0.47;89.96
62025;BME280;47978;49.118;12.146;2022-12-07T06:39:15;97352.78;;;0.51;89.79
62025;BME280;47978;49.118;12.146;2022-12-07T06:43:16;97351.22;;;0.38;90.43
62025;BME280;47978;49.118;12.146;2022-12-07T06:47:18;97365.41;;;0.40;90.70
62025;BME280;47978;49.118;12.146;2022-12-07T06:51:39;97371.56;;;0.36;91.21
62025;BME280;47978;49.118;12.146;2022-12-07T06:55:42;97373.88;;;0.44;91.24
62025;BME280;47978;49.118;12.146;2022-12-07T06:59:43;97370.69;;;0.47;91.39
62025;BME280;47978;49.118;12.146;2022-12-07T07:03:45;97378.94;;;0.52;91.34
62025;BME280;47978;49.118;12.146;2022-12-07T07:07:46;97379.53;;;0.54;91.61
62025;BME280;47978;49.118;12.146;2022-12-07T07:12:09;97376.97;;;0.64;91.81
62025;BME280;47978;49.118;12.146;2022-12-07T07:16:11;97371.03;;;0.67;92.19
62025;BME280;47978;49.118;12.146;2022-12-07T07:20:12;97362.22;;;0.77;92.23
62025;BME280;47978;49.118;12.146;2022-12-07T07:24:14;97376.41;;;0.79;92.68
62025;BME280;47978;49.118;12.146;2022-12-07T07:28:16;97381.19;;;0.89;92.79
62025;BME280;47978;49.118;12.146;2022-12-07T07:32:18;97373.59;;;0.91;92.55
62025;BME280;47978;49.118;12.146;2022-12-07T07:36:19;97378.91;;;0.98;92.77
62025;BME280;47978;49.118;12.146;2022-12-07T07:40:21;97377.22;;;1.13;92.34
62025;BME280;47978;49.118;12.146;2022-12-07T07:44:23;97387.69;;;1.22;91.94
62025;BME280;47978;49.118;12.146;2022-12-07T07:48:30;97381.53;;;1.26;92.41
62025;BME280;47978;49.118;12.146;2022-12-07T07:52:31;97379.75;;;1.54;91.96
62025;BME280;47978;49.118;12.146;2022-12-07T07:56:33;97379.22;;;1.74;90.64
62025;BME280;47978;49.118;12.146;2022-12-07T08:00:36;97379.13;;;1.69;91.71
62025;BME280;47978;49.118;12.146;2022-12-07T08:04:37;97390.63;;;1.71;91.82
62025;BME280;47978;49.118;12.146;2022-12-07T08:08:39;97378.81;;;1.87;91.55
62025;BME280;47978;49.118;12.146;2022-12-07T08:12:41;97386.44;;;1.85;91.62
62025;BME280;47978;49.118;12.146;2022-12-07T08:16:44;97391.56;;;2.03;90.60
62025;BME280;47978;49.118;12.146;2022-12-07T08:20:46;97388.03;;;2.03;90.64
62025;BME280;47978;49.118;12.146;2022-12-07T08:24:47;97385.53;;;2.23;90.07
62025;BME280;47978;49.118;12.146;2022-12-07T08:28:49;97386.72;;;2.33;89.03
62025;BME280;47978;49.118;12.146;2022-12-07T08:32:51;97393.28;;;2.32;89.62
62025;BME280;47978;49.118;12.146;2022-12-07T08:36:53;97393.84;;;2.34;89.63
62025;BME280;47978;49.118;12.146;2022-12-07T08:40:54;97402.72;;;2.46;89.48
62025;BME280;47978;49.118;12.146;2022-12-07T08:44:56;97400.09;;;2.56;89.38
62025;BME280;47978;49.118;12.146;2022-12-07T08:49:01;97403.56;;;2.74;88.70
62025;BME280;47978;49.118;12.146;2022-12-07T08:53:04;97402.25;;;2.81;88.47
62025;BME280;47978;49.118;12.146;2022-12-07T08:57:06;97399.16;;;3.00;87.80
62025;BME280;47978;49.118;12.146;2022-12-07T09:01:08;97402.47;;;3.07;86.93
62025;BME280;47978;49.118;12.146;2022-12-07T09:05:11;97398.31;;;3.31;85.78
62025;BME280;47978;49.118;12.146;2022-12-07T09:09:17;97404.00;;;3.25;86.34
62025;BME280;47978;49.118;12.146;2022-12-07T09:13:18;97403.72;;;3.26;84.05
62025;BME280;47978;49.118;12.146;2022-12-07T09:17:20;97404.41;;;3.44;83.52
62025;BME280;47978;49.118;12.146;2022-12-07T09:21:23;97405.31;;;3.54;82.52
62025;BME280;47978;49.118;12.146;2022-12-07T09:25:24;97407.59;;;3.73;80.96
62025;BME280;47978;49.118;12.146;2022-12-07T09:29:25;97402.44;;;3.76;79.19
62025;BME280;47978;49.118;12.146;2022-12-07T09:33:27;97394.19;;;3.71;80.27
62025;BME280;47978;49.118;12.146;2022-12-07T09:37:30;97394.44;;;3.65;79.60
62025;BME280;47978;49.118;12.146;2022-12-07T09:41:31;97392.03;;;3.78;79.33
62025;BME280;47978;49.118;12.146;2022-12-07T09:45:34;97394.72;;;3.68;79.64
62025;BME280;47978;49.118;12.146;2022-12-07T09:49:36;97390.41;;;3.77;78.55
62025;BME280;47978;49.118;12.146;2022-12-07T09:53:39;97380.25;;;3.73;78.88
62025;BME280;47978;49.118;12.146;2022-12-07T09:57:41;97384.16;;;3.82;79.03
62025;BME280;47978;49.118;12.146;2022-12-07T10:01:46;97378.25;;;3.58;80.00
62025;BME280;47978;49.118;12.146;2022-12-07T10:05:49;97376.16;;;3.75;79.19
62025;BME280;47978;49.118;12.146;2022-12-07T10:09:52;97372.16;;;3.98;78.16
62025;BME280;47978;49.118;12.146;2022-12-07T10:13:54;97368.13;;;4.06;78.56
62025;BME280;47978;49.118;12.146;2022-12-07T10:17:55;97362.44;;;4.23;77.82
62025;BME280;47978;49.118;12.146;2022-12-07T10:22:01;97364.31;;;4.17;77.62
62025;BME280;47978;49.118;12.146;2022-12-07T10:30:35;97355.66;;;4.46;76.99
62025;BME280;47978;49.118;12.146;2022-12-07T10:34:46;97338.44;;;4.61;76.12
62025;BME280;47978;49.118;12.146;2022-12-07T10:38:53;97336.53;;;4.66;74.98
62025;BME280;47978;49.118;12.146;2022-12-07T10:43:03;97332.72;;;4.67;75.75
62025;BME280;47978;49.118;12.146;2022-12-07T10:47:18;97334.31;;;4.63;75.86
62025;BME280;47978;49.118;12.146;2022-12-07T10:51:24;97328.59;;;4.65;74.42
62025;BME280;47978;49.118;12.146;2022-12-07T10:55:31;97322.84;;;4.56;75.47
62025;BME280;47978;49.118;12.146;2022-12-07T10:59:42;97321.44;;;4.43;74.44
62025;BME280;47978;49.118;12.146;2022-12-07T11:04:06;97320.06;;;4.36;74.08
62025;BME280;47978;49.118;12.146;2022-12-07T11:08:14;97314.56;;;4.25;75.09
62025;BME280;47978;49.118;12.146;2022-12-07T11:12:20;97313.75;;;4.35;74.97
62025;BME280;47978;49.118;12.146;2022-12-07T11:16:31;97310.22;;;4.50;74.17
62025;BME280;47978;49.118;12.146;2022-12-07T11:20:39;97305.84;;;4.39;74.98
62025;BME280;47978;49.118;12.146;2022-12-07T11:24:45;97300.91;;;4.46;73.68
62025;BME280;47978;49.118;12.146;2022-12-07T11:28:55;97298.44;;;4.49;74.40
62025;BME280;47978;49.118;12.146;2022-12-07T11:33:10;97307.47;;;4.55;75.11
62025;BME280;47978;49.118;12.146;2022-12-07T11:37:16;97296.53;;;4.60;74.80
62025;BME280;47978;49.118;12.146;2022-12-07T11:41:20;97289.72;;;4.53;75.08
62025;BME280;47978;49.118;12.146;2022-12-07T11:45:25;97287.50;;;4.75;75.76
62025;BME280;47978;49.118;12.146;2022-12-07T11:49:29;97287.78;;;4.63;74.88
62025;BME280;47978;49.118;12.146;2022-12-07T11:53:41;97287.78;;;4.68;74.66
62025;BME280;47978;49.118;12.146;2022-12-07T11:57:44;97282.59;;;4.67;75.34
62025;BME280;47978;49.118;12.146;2022-12-07T12:01:50;97285.88;;;4.74;75.47
62025;BME280;47978;49.118;12.146;2022-12-07T12:05:52;97276.28;;;4.56;75.54
62025;BME280;47978;49.118;12.146;2022-12-07T12:09:58;97274.09;;;4.53;76.48
62025;BME280;47978;49.118;12.146;2022-12-07T12:14:04;97265.59;;;4.49;77.06
62025;BME280;47978;49.118;12.146;2022-12-07T12:18:35;97265.31;;;4.51;77.26
62025;BME280;47978;49.118;12.146;2022-12-07T12:22:39;97261.22;;;4.69;76.70
62025;BME280;47978;49.118;12.146;2022-12-07T12:26:48;97264.25;;;4.67;76.98
62025;BME280;47978;49.118;12.146;2022-12-07T12:31:04;97259.84;;;4.56;77.11
62025;BME280;47978;49.118;12.146;2022-12-07T12:35:27;97260.66;;;4.51;77.44
62025;BME280;47978;49.118;12.146;2022-12-07T12:39:29;97267.22;;;4.45;77.91
62025;BME280;47978;49.118;12.146;2022-12-07T12:43:45;97261.47;;;4.32;78.53
62025;BME280;47978;49.118;12.146;2022-12-07T12:51:57;97260.91;;;4.24;79.50
62025;BME280;47978;49.118;12.146;2022-12-07T13:00:32;97257.91;;;4.16;80.88
62025;BME280;47978;49.118;12.146;2022-12-07T13:04:38;97254.59;;;4.24;80.60
62025;BME280;47978;49.118;12.146;2022-12-07T13:08:40;97245.56;;;4.18;80.54
62025;BME280;47978;49.118;12.146;2022-12-07T13:12:42;97241.19;;;4.17;80.76
62025;BME280;47978;49.118;12.146;2022-12-07T13:16:45;97240.66;;;4.31;80.68
62025;BME280;47978;49.118;12.146;2022-12-07T13:20:48;97243.13;;;4.27;80.71
62025;BME280;47978;49.118;12.146;2022-12-07T13:24:49;97239.56;;;4.32;80.98
62025;BME280;47978;49.118;12.146;2022-12-07T13:29:04;97245.28;;;4.15;81.36
62025;BME280;47978;49.118;12.146;2022-12-07T13:33:09;97239.78;;;4.10;81.67
62025;BME280;47978;49.118;12.146;2022-12-07T13:37:12;97242.00;;;4.18;81.38
62025;BME280;47978;49.118;12.146;2022-12-07T13:41:15;97237.91;;;4.25;80.85
62025;BME280;47978;49.118;12.146;2022-12-07T13:45:20;97241.19;;;4.17;81.29
62025;BME280;47978;49.118;12.146;2022-12-07T13:49:24;97242.00;;;4.18;81.40
62025;BME280;47978;49.118;12.146;2022-12-07T13:53:26;97239.56;;;4.21;81.48
62025;BME280;47978;49.118;12.146;2022-12-07T13:57:28;97238.44;;;4.17;81.37
62025;BME280;47978;49.118;12.146;2022-12-07T14:01:30;97243.66;;;4.24;81.58
62025;BME280;47978;49.118;12.146;2022-12-07T14:05:34;97238.19;;;4.24;81.52
62025;BME280;47978;49.118;12.146;2022-12-07T14:09:36;97239.00;;;4.19;81.24
62025;BME280;47978;49.118;12.146;2022-12-07T14:13:38;97236.28;;;4.24;80.70
62025;BME280;47978;49.118;12.146;2022-12-07T14:17:49;97248.88;;;4.31;81.27
62025;BME280;47978;49.118;12.146;2022-12-07T14:26:10;97234.34;;;4.20;81.27
62025;BME280;47978;49.118;12.146;2022-12-07T14:30:14;97238.72;;;4.05;81.88
62025;BME280;47978;49.118;12.146;2022-12-07T14:34:16;97233.50;;;4.09;81.71
62025;BME280;47978;49.118;12.146;2022-12-07T14:38:18;97233.28;;;4.16;81.41
62025;BME280;47978;49.118;12.146;2022-12-07T14:42:20;97231.59;;;4.15;81.59
62025;BME280;47978;49.118;12.146;2022-12-07T14:46:24;97228.31;;;4.08;81.68
62025;BME280;47978;49.118;12.146;2022-12-07T14:50:25;97225.88;;;4.16;81.63
62025;BME280;47978;49.118;12.146;2022-12-07T14:54:27;97222.56;;;4.14;81.76
62025;BME280;47978;49.118;12.146;2022-12-07T14:58:33;97226.41;;;4.13;81.51
62025;BME280;47978;49.118;12.146;2022-12-07T15:02:34;97229.69;;;4.20;80.96
62025;BME280;47978;49.118;12.146;2022-12-07T15:06:36;97219.56;;;4.05;81.92
62025;BME280;47978;49.118;12.146;2022-12-07T15:10:37;97217.91;;;3.99;82.05
62025;BME280;47978;49.118;12.146;2022-12-07T15:14:40;97219.31;;;4.07;81.99
62025;BME280;47978;49.118;12.146;2022-12-07T15:18:41;97210.56;;;4.10;82.06
62025;BME280;47978;49.118;12.146;2022-12-07T15:23:03;97216.25;;;3.98;81.96
62025;BME280;47978;49.118;12.146;2022-12-07T15:27:04;97214.31;;;3.83;83.16
62025;BME280;47978;49.118;12.146;2022-12-07T15:31:11;97209.91;;;3.67;84.21
62025;BME280;47978;49.118;12.146;2022-12-07T15:35:33;97210.16;;;3.66;84.06
62025;BME280;47978;49.118;12.146;2022-12-07T15:39:35;97213.16;;;3.69;84.42
62025;BME280;47978;49.118;12.146;2022-12-07T15:43:37;97208.44;;;3.44;85.65
62025;BME280;47978;49.118;12.146;2022-12-07T15:47:40;97211.19;;;3.49;85.33
62025;BME280;47978;49.118;12.146;2022-12-07T15:52:02;97218.13;;;3.77;83.18
62025;BME280;47978;49.118;12.146;2022-12-07T15:56:11;97203.81;;;3.55;83.94
62025;BME280;47978;49.118;12.146;2022-12-07T16:00:13;97201.91;;;3.50;84.17
62025;BME280;47978;49.118;12.146;2022-12-07T16:04:16;97200.03;;;3.56;83.75
62025;BME280;47978;49.118;12.146;2022-12-07T16:08:17;97209.34;;;3.65;83.64
62025;BME280;47978;49.118;12.146;2022-12-07T16:12:19;97206.34;;;3.62;84.03
62025;BME280;47978;49.118;12.146;2022-12-07T16:16:20;97201.63;;;3.52;83.93
62025;BME280;47978;49.118;12.146;2022-12-07T16:20:23;97213.66;;;3.46;84.25
62025;BME280;47978;49.118;12.146;2022-12-07T16:24:25;97215.78;;;3.38;84.79
62025;BME280;47978;49.118;12.146;2022-12-07T16:28:27;97213.34;;;3.37;84.76
62025;BME280;47978;49.118;12.146;2022-12-07T16:32:29;97195.25;;;3.26;85.18
62025;BME280;47978;49.118;12.146;2022-12-07T16:36:32;97204.09;;;3.48;83.98
62025;BME280;47978;49.118;12.146;2022-12-07T16:40:53;97204.28;;;3.31;85.01
62025;BME280;47978;49.118;12.146;2022-12-07T16:44:55;97205.94;;;3.27;85.18
62025;BME280;47978;49.118;12.146;2022-12-07T16:48:56;97208.94;;;3.31;85.46
62025;BME280;47978;49.118;12.146;2022-12-07T16:52:59;97201.78;;;3.20;85.77
62025;BME280;47978;49.118;12.146;2022-12-07T16:57:00;97202.69;;;3.41;84.91
62025;BME280;47978;49.118;12.146;2022-12-07T17:01:08;97203.19;;;3.27;85.55
62025;BME280;47978;49.118;12.146;2022-12-07T17:05:09;97214.06;;;3.17;86.66
62025;BME280;47978;49.118;12.146;2022-12-07T17:09:12;97206.38;;;3.09;87.74
62025;BME280;47978;49.118;12.146;2022-12-07T17:13:21;97195.91;;;2.96;88.68
62025;BME280;47978;49.118;12.146;2022-12-07T17:17:22;97196.41;;;2.87;88.89
62025;BME280;47978;49.118;12.146;2022-12-07T17:21:24;97202.13;;;2.86;89.40
62025;BME280;47978;49.118;12.146;2022-12-07T17:25:27;97203.47;;;2.83;89.24
62025;BME280;47978;49.118;12.146;2022-12-07T17:29:28;97205.13;;;2.84;89.49
62025;BME280;47978;49.118;12.146;2022-12-07T17:33:30;97202.66;;;2.83;89.33
62025;BME280;47978;49.118;12.146;2022-12-07T17:37:32;97200.44;;;2.75;89.74
62025;BME280;47978;49.118;12.146;2022-12-07T17:41:35;97199.63;;;2.74;89.91
62025;BME280;47978;49.118;12.146;2022-12-07T17:45:37;97211.38;;;2.80;89.71
62025;BME280;47978;49.118;12.146;2022-12-07T17:49:38;97200.72;;;2.78;89.54
62025;BME280;47978;49.118;12.146;2022-12-07T17:53:40;97199.00;;;2.67;89.61
62025;BME280;47978;49.118;12.146;2022-12-07T17:57:43;97198.16;;;2.61;90.20
62025;BME280;47978;49.118;12.146;2022-12-07T18:01:44;97198.47;;;2.65;89.66
62025;BME280;47978;49.118;12.146;2022-12-07T18:05:46;97190.81;;;2.62;89.75
62025;BME280;47978;49.118;12.146;2022-12-07T18:09:47;97185.25;;;2.52;90.33
62025;BME280;47978;49.118;12.146;2022-12-07T18:13:50;97194.25;;;2.52;89.86
62025;BME280;47978;49.118;12.146;2022-12-07T18:17:51;97192.28;;;2.42;90.22
62025;BME280;47978;49.118;12.146;2022-12-07T18:21:53;97182.19;;;2.43;90.49
62025;BME280;47978;49.118;12.146;2022-12-07T18:25:54;97196.06;;;2.36;90.94
62025;BME280;47978;49.118;12.146;2022-12-07T18:29:57;97197.22;;;2.45;90.44
62025;BME280;47978;49.118;12.146;2022-12-07T18:33:59;97198.63;;;2.48;90.37
62025;BME280;47978;49.118;12.146;2022-12-07T18:38:01;97197.22;;;2.45;90.34
62025;BME280;47978;49.118;12.146;2022-12-07T18:42:02;97197.19;;;2.40;90.74
62025;BME280;47978;49.118;12.146;2022-12-07T18:46:09;97195.28;;;2.41;90.67
62025;BME280;47978;49.118;12.146;2022-12-07T18:50:11;97195.38;;;2.51;90.23
62025;BME280;47978;49.118;12.146;2022-12-07T18:54:12;97192.59;;;2.46;90.55
62025;BME280;47978;49.118;12.146;2022-12-07T18:58:14;97204.31;;;2.46;90.20
62025;BME280;47978;49.118;12.146;2022-12-07T19:02:17;97191.97;;;2.39;90.66
62025;BME280;47978;49.118;12.146;2022-12-07T19:06:18;97186.31;;;2.45;90.31
62025;BME280;47978;49.118;12.146;2022-12-07T19:10:20;97203.97;;;2.38;91.18
62025;BME280;47978;49.118;12.146;2022-12-07T19:14:22;97185.50;;;2.45;90.60
62025;BME280;47978;49.118;12.146;2022-12-07T19:18:26;97194.41;;;2.35;90.64
62025;BME280;47978;49.118;12.146;2022-12-07T19:22:27;97186.19;;;2.30;90.94
62025;BME280;47978;49.118;12.146;2022-12-07T19:26:29;97182.63;;;2.30;90.85
62025;BME280;47978;49.118;12.146;2022-12-07T19:40:00;97174.72;;;2.28;90.68
62025;BME280;47978;49.118;12.146;2022-12-07T19:44:02;97182.91;;;2.28;90.99
62025;BME280;47978;49.118;12.146;2022-12-07T19:48:04;97179.13;;;2.34;90.80
62025;BME280;47978;49.118;12.146;2022-12-07T19:52:06;97182.59;;;2.24;91.33
62025;BME280;47978;49.118;12.146;2022-12-07T19:56:12;97174.91;;;2.16;91.52
62025;BME280;47978;49.118;12.146;2022-12-07T20:00:14;97172.94;;;2.12;91.64
62025;BME280;47978;49.118;12.146;2022-12-07T20:04:16;97179.97;;;2.08;92.15
62025;BME280;47978;49.118;12.146;2022-12-07T20:08:18;97174.34;;;2.14;92.01
62025;BME280;47978;49.118;12.146;2022-12-07T20:12:21;97165.69;;;2.22;91.56
62025;BME280;47978;49.118;12.146;2022-12-07T20:16:22;97164.19;;;2.10;92.07
62025;BME280;47978;49.118;12.146;2022-12-07T20:20:24;97155.53;;;2.18;91.74
62025;BME280;47978;49.118;12.146;2022-12-07T20:24:25;97157.44;;;2.17;91.67
62025;BME280;47978;49.118;12.146;2022-12-07T20:28:28;97158.78;;;2.15;91.56
62025;BME280;47978;49.118;12.146;2022-12-07T20:32:29;97156.81;;;2.05;92.12
62025;BME280;47978;49.118;12.146;2022-12-07T20:36:31;97151.00;;;1.96;92.32
62025;BME280;47978;49.118;12.146;2022-12-07T20:40:33;97157.34;;;2.07;91.97
62025;BME280;47978;49.118;12.146;2022-12-07T20:44:36;97164.16;;;2.05;91.99
62025;BME280;47978;49.118;12.146;2022-12-07T20:48:37;97165.28;;;2.09;91.99
62025;BME280;47978;49.118;12.146;2022-12-07T20:52:39;97157.97;;;2.14;91.35
62025;BME280;47978;49.118;12.146;2022-12-07T20:56:40;97159.50;;;2.00;90.93
62025;BME280;47978;49.118;12.146;2022-12-07T21:00:43;97143.66;;;2.02;90.61
62025;BME280;47978;49.118;12.146;2022-12-07T21:04:44;97143.13;;;2.00;90.39
62025;BME280;47978;49.118;12.146;2022-12-07T21:08:46;97154.75;;;1.90;90.26
62025;BME280;47978;49.118;12.146;2022-12-07T21:12:48;97135.38;;;1.87;89.97
62025;BME280;47978;49.118;12.146;2022-12-07T21:16:57;97137.16;;;1.71;90.58
62025;BME280;47978;49.118;12.146;2022-12-07T21:20:59;97139.00;;;1.65;90.19
62025;BME280;47978;49.118;12.146;2022-12-07T21:25:01;97131.53;;;1.55;90.96
62025;BME280;47978;49.118;12.146;2022-12-07T21:29:04;97137.94;;;1.44;91.41
62025;BME280;47978;49.118;12.146;2022-12-07T21:33:07;97129.47;;;1.41;90.92
62025;BME280;47978;49.118;12.146;2022-12-07T21:37:08;97128.31;;;1.37;90.89
62025;BME280;47978;49.118;12.146;2022-12-07T21:41:10;97127.94;;;1.23;91.41
62025;BME280;47978;49.118;12.146;2022-12-07T21:45:12;97131.09;;;1.15;91.55
62025;BME280;47978;49.118;12.146;2022-12-07T21:49:14;97124.13;;;1.02;91.47
62025;BME280;47978;49.118;12.146;2022-12-07T21:53:16;97131.91;;;0.93;91.92
62025;BME280;47978;49.118;12.146;2022-12-07T21:57:17;97127.63;;;0.97;92.16
62025;BME280;47978;49.118;12.146;2022-12-07T22:01:19;97121.69;;;1.00;91.19
62025;BME280;47978;49.118;12.146;2022-12-07T22:05:22;97112.63;;;0.95;90.89
62025;BME280;47978;49.118;12.146;2022-12-07T22:09:23;97102.19;;;0.86;90.47
62025;BME280;47978;49.118;12.146;2022-12-07T22:13:25;97096.81;;;0.92;89.96
62025;BME280;47978;49.118;12.146;2022-12-07T22:17:27;97102.25;;;0.70;90.45
62025;BME280;47978;49.118;12.146;2022-12-07T22:21:30;97105.41;;;0.61;90.46
62025;BME280;47978;49.118;12.146;2022-12-07T22:25:32;97106.91;;;0.52;91.03
62025;BME280;47978;49.118;12.146;2022-12-07T22:29:33;97106.84;;;0.47;91.64
62025;BME280;47978;49.118;12.146;2022-12-07T22:33:34;97101.59;;;0.40;91.66
62025;BME280;47978;49.118;12.146;2022-12-07T22:37:37;97098.38;;;0.43;91.91
62025;BME280;47978;49.118;12.146;2022-12-07T22:41:38;97097.50;;;0.60;91.93
62025;BME280;47978;49.118;12.146;2022-12-07T22:45:40;97105.66;;;0.60;92.36
62025;BME280;47978;49.118;12.146;2022-12-07T22:49:41;97102.38;;;0.58;92.58
62025;BME280;47978;49.118;12.146;2022-12-07T22:53:44;97102.94;;;0.60;92.68
62025;BME280;47978;49.118;12.146;2022-12-07T22:57:46;97088.31;;;0.88;91.98
62025;BME280;47978;49.118;12.146;2022-12-07T23:01:47;97081.53;;;0.90;92.20